Aviation Digital Data Service (ADDS)

Output produced by METARs form (1234 UTC 25 June 2019)
found at http://www.aviationweather.gov/metar/data/
 
METAR text: UKLI 251200Z 04002MPS 340V090 9999 BKN043 28/19 Q1026 R10/090070 NOSIG
Conditions at: UKLI (IVANO-FRANKIVSK , UA) observed 1200 UTC 25 June 2019
Temperature: 28.0°C (82°F)
Dewpoint: 19.0°C (66°F) [RH = 58%]
Pressure (altimeter): 30.30 inches Hg (1026.0 mb)
Winds: from the NE (40 degrees) at 5 MPH (4 knots; 2.1 m/s)
Visibility: 6 or more miles (10+ km)
Ceiling: 4300 feet AGL
Clouds: broken clouds at 4300 feet AGL
Weather: no significant weather observed at this time

METAR text: UKLI 251130Z VRB01MPS 9999 BKN043 28/19 Q1027 R10/090070 NOSIG
Conditions at: UKLI (IVANO-FRANKIVSK , UA) observed 1130 UTC 25 June 2019
Temperature: 28.0°C (82°F)
Dewpoint: 19.0°C (66°F) [RH = 58%]
Pressure (altimeter): 30.32 inches Hg (1027.0 mb)
Winds: variable direction winds at 2 MPH (2 knots; 1.0 m/s)
Visibility: 6 or more miles (10+ km)
Ceiling: 4300 feet AGL
Clouds: broken clouds at 4300 feet AGL
Weather: no significant weather observed at this time

METAR text: UKLI 251100Z VRB01MPS 9999 BKN043 28/18 Q1027 R10/090070 NOSIG
Conditions at: UKLI (IVANO-FRANKIVSK , UA) observed 1100 UTC 25 June 2019
Temperature: 28.0°C (82°F)
Dewpoint: 18.0°C (64°F) [RH = 55%]
Pressure (altimeter): 30.32 inches Hg (1027.0 mb)
Winds: variable direction winds at 2 MPH (2 knots; 1.0 m/s)
Visibility: 6 or more miles (10+ km)
Ceiling: 4300 feet AGL
Clouds: broken clouds at 4300 feet AGL
Weather: no significant weather observed at this time

METAR text: UKLI 251030Z 08002MPS 340V150 9999 BKN043 28/18 Q1027 R10/090070 NOSIG
Conditions at: UKLI (IVANO-FRANKIVSK , UA) observed 1030 UTC 25 June 2019
Temperature: 28.0°C (82°F)
Dewpoint: 18.0°C (64°F) [RH = 55%]
Pressure (altimeter): 30.32 inches Hg (1027.0 mb)
Winds: from the E (80 degrees) at 5 MPH (4 knots; 2.1 m/s)
Visibility: 6 or more miles (10+ km)
Ceiling: 4300 feet AGL
Clouds: broken clouds at 4300 feet AGL
Weather: no significant weather observed at this time

METAR text: UKLI 251000Z 10002MPS 030V180 9999 BKN040 28/18 Q1027 R10/090070 NOSIG
Conditions at: UKLI (IVANO-FRANKIVSK , UA) observed 1000 UTC 25 June 2019
Temperature: 28.0°C (82°F)
Dewpoint: 18.0°C (64°F) [RH = 55%]
Pressure (altimeter): 30.32 inches Hg (1027.0 mb)
Winds: from the E (100 degrees) at 5 MPH (4 knots; 2.1 m/s)
Visibility: 6 or more miles (10+ km)
Ceiling: 4000 feet AGL
Clouds: broken clouds at 4000 feet AGL
Weather: no significant weather observed at this time

METAR text: UKLI 250930Z 09002MPS 010V150 9999 BKN040 27/19 Q1027 R10/090070 NOSIG
Conditions at: UKLI (IVANO-FRANKIVSK , UA) observed 0930 UTC 25 June 2019
Temperature: 27.0°C (81°F)
Dewpoint: 19.0°C (66°F) [RH = 62%]
Pressure (altimeter): 30.32 inches Hg (1027.0 mb)
Winds: from the E (90 degrees) at 5 MPH (4 knots; 2.1 m/s)
Visibility: 6 or more miles (10+ km)
Ceiling: 4000 feet AGL
Clouds: broken clouds at 4000 feet AGL
Weather: no significant weather observed at this time

METAR text: UKLI 250900Z VRB01MPS 9999 BKN040 27/18 Q1027 R10/090070 NOSIG
Conditions at: UKLI (IVANO-FRANKIVSK , UA) observed 0900 UTC 25 June 2019
Temperature: 27.0°C (81°F)
Dewpoint: 18.0°C (64°F) [RH = 58%]
Pressure (altimeter): 30.32 inches Hg (1027.0 mb)
Winds: variable direction winds at 2 MPH (2 knots; 1.0 m/s)
Visibility: 6 or more miles (10+ km)
Ceiling: 4000 feet AGL
Clouds: broken clouds at 4000 feet AGL
Weather: no significant weather observed at this time

METAR text: UKLI 250830Z VRB01MPS 9999 SCT043 26/19 Q1027 R10/090070 NOSIG
Conditions at: UKLI (IVANO-FRANKIVSK , UA) observed 0830 UTC 25 June 2019
Temperature: 26.0°C (79°F)
Dewpoint: 19.0°C (66°F) [RH = 65%]
Pressure (altimeter): 30.32 inches Hg (1027.0 mb)
Winds: variable direction winds at 2 MPH (2 knots; 1.0 m/s)
Visibility: 6 or more miles (10+ km)
Ceiling: at least 12,000 feet AGL
Clouds: scattered clouds at 4300 feet AGL
Weather: no significant weather observed at this time

METAR text: UKLI 250800Z VRB01MPS 9999 SCT043 26/19 Q1027 R10/090070 NOSIG
Conditions at: UKLI (IVANO-FRANKIVSK , UA) observed 0800 UTC 25 June 2019
Temperature: 26.0°C (79°F)
Dewpoint: 19.0°C (66°F) [RH = 65%]
Pressure (altimeter): 30.32 inches Hg (1027.0 mb)
Winds: variable direction winds at 2 MPH (2 knots; 1.0 m/s)
Visibility: 6 or more miles (10+ km)
Ceiling: at least 12,000 feet AGL
Clouds: scattered clouds at 4300 feet AGL
Weather: no significant weather observed at this time

METAR text: UKLI 250730Z 00000MPS 9999 SCT040 25/19 Q1027 R28/090070 NOSIG
Conditions at: UKLI (IVANO-FRANKIVSK , UA) observed 0730 UTC 25 June 2019
Temperature: 25.0°C (77°F)
Dewpoint: 19.0°C (66°F) [RH = 69%]
Pressure (altimeter): 30.32 inches Hg (1027.0 mb)
Winds: calm
Visibility: 6 or more miles (10+ km)
Ceiling: at least 12,000 feet AGL
Clouds: scattered clouds at 4000 feet AGL
Weather: no significant weather observed at this time

METAR text: UKLI 250700Z 00000MPS 9999 SCT040 24/19 Q1026 R28/090070 NOSIG
Conditions at: UKLI (IVANO-FRANKIVSK , UA) observed 0700 UTC 25 June 2019
Temperature: 24.0°C (75°F)
Dewpoint: 19.0°C (66°F) [RH = 74%]
Pressure (altimeter): 30.30 inches Hg (1026.0 mb)
Winds: calm
Visibility: 6 or more miles (10+ km)
Ceiling: at least 12,000 feet AGL
Clouds: scattered clouds at 4000 feet AGL
Weather: no significant weather observed at this time

METAR text: UKLI 250630Z 05001MPS 9999 BKN040 24/19 Q1026 R28/090070 NOSIG
Conditions at: UKLI (IVANO-FRANKIVSK , UA) observed 0630 UTC 25 June 2019
Temperature: 24.0°C (75°F)
Dewpoint: 19.0°C (66°F) [RH = 74%]
Pressure (altimeter): 30.30 inches Hg (1026.0 mb)
Winds: from the NE (50 degrees) at 2 MPH (2 knots; 1.0 m/s)
Visibility: 6 or more miles (10+ km)
Ceiling: 4000 feet AGL
Clouds: broken clouds at 4000 feet AGL
Weather: no significant weather observed at this time

METAR text: UKLI 250600Z 03002MPS 9999 BKN040 23/18 Q1026 R28/090070 NOSIG
Conditions at: UKLI (IVANO-FRANKIVSK , UA) observed 0600 UTC 25 June 2019
Temperature: 23.0°C (73°F)
Dewpoint: 18.0°C (64°F) [RH = 73%]
Pressure (altimeter): 30.30 inches Hg (1026.0 mb)
Winds: from the NNE (30 degrees) at 5 MPH (4 knots; 2.1 m/s)
Visibility: 6 or more miles (10+ km)
Ceiling: 4000 feet AGL
Clouds: broken clouds at 4000 feet AGL
Weather: no significant weather observed at this time

METAR text: UKLI 250530Z 36002MPS 320V040 9999 BKN040 22/20 Q1026 R28/090070 NOSIG
Conditions at: UKLI (IVANO-FRANKIVSK , UA) observed 0530 UTC 25 June 2019
Temperature: 22.0°C (72°F)
Dewpoint: 20.0°C (68°F) [RH = 88%]
Pressure (altimeter): 30.30 inches Hg (1026.0 mb)
Winds: from the N (360 degrees) at 5 MPH (4 knots; 2.1 m/s)
Visibility: 6 or more miles (10+ km)
Ceiling: 4000 feet AGL
Clouds: broken clouds at 4000 feet AGL
Weather: no significant weather observed at this time

METAR text: UKLI 250500Z 35002MPS 9999 SCT040 21/19 Q1026 R28/090070 NOSIG
Conditions at: UKLI (IVANO-FRANKIVSK , UA) observed 0500 UTC 25 June 2019
Temperature: 21.0°C (70°F)
Dewpoint: 19.0°C (66°F) [RH = 88%]
Pressure (altimeter): 30.30 inches Hg (1026.0 mb)
Winds: from the N (350 degrees) at 5 MPH (4 knots; 2.1 m/s)
Visibility: 6 or more miles (10+ km)
Ceiling: at least 12,000 feet AGL
Clouds: scattered clouds at 4000 feet AGL
Weather: no significant weather observed at this time

METAR text: UKLI 250430Z 00000MPS 9999 SCT040 20/19 Q1026 R28/090070 NOSIG
Conditions at: UKLI (IVANO-FRANKIVSK , UA) observed 0430 UTC 25 June 2019
Temperature: 20.0°C (68°F)
Dewpoint: 19.0°C (66°F) [RH = 94%]
Pressure (altimeter): 30.30 inches Hg (1026.0 mb)
Winds: calm
Visibility: 6 or more miles (10+ km)
Ceiling: at least 12,000 feet AGL
Clouds: scattered clouds at 4000 feet AGL
Weather: no significant weather observed at this time

METAR text: UKLI 250400Z 21001MPS 9999 SCT040 19/19 Q1026 R28/090070 NOSIG
Conditions at: UKLI (IVANO-FRANKIVSK , UA) observed 0400 UTC 25 June 2019
Temperature: 19.0°C (66°F)
Dewpoint: 19.0°C (66°F) [RH = 100%]
Pressure (altimeter): 30.30 inches Hg (1026.0 mb)
Winds: from the SSW (210 degrees) at 2 MPH (2 knots; 1.0 m/s)
Visibility: 6 or more miles (10+ km)
Ceiling: at least 12,000 feet AGL
Clouds: scattered clouds at 4000 feet AGL
Weather: no significant weather observed at this time

METAR text: UKLI 250330Z VRB01MPS 5000 BR SCT040 18/18 Q1026 R28/090070 NOSIG
Conditions at: UKLI (IVANO-FRANKIVSK , UA) observed 0330 UTC 25 June 2019
Temperature: 18.0°C (64°F)
Dewpoint: 18.0°C (64°F) [RH = 100%]
Pressure (altimeter): 30.30 inches Hg (1026.0 mb)
Winds: variable direction winds at 2 MPH (2 knots; 1.0 m/s)
Visibility: 3 miles ( 5 km)
Ceiling: at least 12,000 feet AGL
Clouds: scattered clouds at 4000 feet AGL
Weather: BR  (mist)

METAR text: UKLI 250300Z 29001MPS 9999 3900N BR BKN040 17/17 Q1025 R28/090070 NOSIG
Conditions at: UKLI (IVANO-FRANKIVSK , UA) observed 0300 UTC 25 June 2019
Temperature: 17.0°C (63°F)
Dewpoint: 17.0°C (63°F) [RH = 100%]
Pressure (altimeter): 30.27 inches Hg (1025.0 mb)
Winds: from the WNW (290 degrees) at 2 MPH (2 knots; 1.0 m/s)
Visibility: 6 or more miles (10+ km)
Ceiling: 4000 feet AGL
Clouds: broken clouds at 4000 feet AGL
Weather: BR  (mist)

METAR text: UKLI 250230Z 00000MPS 9999 2100N BR BKN033 17/17 Q1025 R28/090070 NOSIG
Conditions at: UKLI (IVANO-FRANKIVSK , UA) observed 0230 UTC 25 June 2019
Temperature: 17.0°C (63°F)
Dewpoint: 17.0°C (63°F) [RH = 100%]
Pressure (altimeter): 30.27 inches Hg (1025.0 mb)
Winds: calm
Visibility: 6 or more miles (10+ km)
Ceiling: 3300 feet AGL
Clouds: broken clouds at 3300 feet AGL
Weather: BR  (mist)

METAR text: UKLI 250200Z 00000MPS 9000 2600N BR BKN033 17/17 Q1025 R28/090070 NOSIG
Conditions at: UKLI (IVANO-FRANKIVSK , UA) observed 0200 UTC 25 June 2019
Temperature: 17.0°C (63°F)
Dewpoint: 17.0°C (63°F) [RH = 100%]
Pressure (altimeter): 30.27 inches Hg (1025.0 mb)
Winds: calm
Visibility: 6 miles ( 9 km)
Ceiling: 3300 feet AGL
Clouds: broken clouds at 3300 feet AGL
Weather: BR  (mist)

METAR text: UKLI 242100Z 30002MPS 9999 SCT033 19/18 Q1025 R28/090070 NOSIG
Conditions at: UKLI (IVANO-FRANKIVSK , UA) observed 2100 UTC 24 June 2019
Temperature: 19.0°C (66°F)
Dewpoint: 18.0°C (64°F) [RH = 94%]
Pressure (altimeter): 30.27 inches Hg (1025.0 mb)
Winds: from the WNW (300 degrees) at 5 MPH (4 knots; 2.1 m/s)
Visibility: 6 or more miles (10+ km)
Ceiling: at least 12,000 feet AGL
Clouds: scattered clouds at 3300 feet AGL
Weather: no significant weather observed at this time

METAR text: UKLI 242030Z 27002MPS 9999 SCT040 20/19 Q1025 R28/090070 NOSIG
Conditions at: UKLI (IVANO-FRANKIVSK , UA) observed 2030 UTC 24 June 2019
Temperature: 20.0°C (68°F)
Dewpoint: 19.0°C (66°F) [RH = 94%]
Pressure (altimeter): 30.27 inches Hg (1025.0 mb)
Winds: from the W (270 degrees) at 5 MPH (4 knots; 2.1 m/s)
Visibility: 6 or more miles (10+ km)
Ceiling: at least 12,000 feet AGL
Clouds: scattered clouds at 4000 feet AGL
Weather: no significant weather observed at this time

METAR text: UKLI 242000Z 25002MPS 9999 SCT046 20/19 Q1025 R28/090070 NOSIG
Conditions at: UKLI (IVANO-FRANKIVSK , UA) observed 2000 UTC 24 June 2019
Temperature: 20.0°C (68°F)
Dewpoint: 19.0°C (66°F) [RH = 94%]
Pressure (altimeter): 30.27 inches Hg (1025.0 mb)
Winds: from the WSW (250 degrees) at 5 MPH (4 knots; 2.1 m/s)
Visibility: 6 or more miles (10+ km)
Ceiling: at least 12,000 feet AGL
Clouds: scattered clouds at 4600 feet AGL
Weather: no significant weather observed at this time

METAR text: UKLI 241930Z 00000MPS 9999 SCT040 BKN100 21/18 Q1025 R28/090070 NOSIG
Conditions at: UKLI (IVANO-FRANKIVSK , UA) observed 1930 UTC 24 June 2019
Temperature: 21.0°C (70°F)
Dewpoint: 18.0°C (64°F) [RH = 83%]
Pressure (altimeter): 30.27 inches Hg (1025.0 mb)
Winds: calm
Visibility: 6 or more miles (10+ km)
Ceiling: 10000 feet AGL
Clouds: scattered clouds at 4000 feet AGL
broken clouds at 10000 feet AGL
Weather: no significant weather observed at this time

METAR text: UKLI 241900Z 36002MPS 9999 SCT040 BKN100 22/18 Q1024 R28/090070 NOSIG
Conditions at: UKLI (IVANO-FRANKIVSK , UA) observed 1900 UTC 24 June 2019
Temperature: 22.0°C (72°F)
Dewpoint: 18.0°C (64°F) [RH = 78%]
Pressure (altimeter): 30.24 inches Hg (1024.0 mb)
Winds: from the N (360 degrees) at 5 MPH (4 knots; 2.1 m/s)
Visibility: 6 or more miles (10+ km)
Ceiling: 10000 feet AGL
Clouds: scattered clouds at 4000 feet AGL
broken clouds at 10000 feet AGL
Weather: no significant weather observed at this time

METAR text: UKLI 241830Z 35002MPS 9999 SCT040 BKN100 23/18 Q1024 R28/090070 NOSIG
Conditions at: UKLI (IVANO-FRANKIVSK , UA) observed 1830 UTC 24 June 2019
Temperature: 23.0°C (73°F)
Dewpoint: 18.0°C (64°F) [RH = 73%]
Pressure (altimeter): 30.24 inches Hg (1024.0 mb)
Winds: from the N (350 degrees) at 5 MPH (4 knots; 2.1 m/s)
Visibility: 6 or more miles (10+ km)
Ceiling: 10000 feet AGL
Clouds: scattered clouds at 4000 feet AGL
broken clouds at 10000 feet AGL
Weather: no significant weather observed at this time

METAR text: UKLI 241800Z 36003MPS 330V040 9999 SCT040 BKN100 23/19 Q1023 R28/090070 NOSIG
Conditions at: UKLI (IVANO-FRANKIVSK , UA) observed 1800 UTC 24 June 2019
Temperature: 23.0°C (73°F)
Dewpoint: 19.0°C (66°F) [RH = 78%]
Pressure (altimeter): 30.21 inches Hg (1023.0 mb)
Winds: from the N (360 degrees) at 7 MPH (6 knots; 3.1 m/s)
Visibility: 6 or more miles (10+ km)
Ceiling: 10000 feet AGL
Clouds: scattered clouds at 4000 feet AGL
broken clouds at 10000 feet AGL
Weather: no significant weather observed at this time

METAR text: UKLI 241730Z 36004MPS 9999 BKN040 24/18 Q1023 R28/090070 NOSIG
Conditions at: UKLI (IVANO-FRANKIVSK , UA) observed 1730 UTC 24 June 2019
Temperature: 24.0°C (75°F)
Dewpoint: 18.0°C (64°F) [RH = 69%]
Pressure (altimeter): 30.21 inches Hg (1023.0 mb)
Winds: from the N (360 degrees) at 9 MPH (8 knots; 4.1 m/s)
Visibility: 6 or more miles (10+ km)
Ceiling: 4000 feet AGL
Clouds: broken clouds at 4000 feet AGL
Weather: no significant weather observed at this time

METAR text: UKLI 241700Z 02004MPS 350V050 9999 FEW030CB BKN043 24/19 Q1023 R28/090070 NOSIG
Conditions at: UKLI (IVANO-FRANKIVSK , UA) observed 1700 UTC 24 June 2019
Temperature: 24.0°C (75°F)
Dewpoint: 19.0°C (66°F) [RH = 74%]
Pressure (altimeter): 30.21 inches Hg (1023.0 mb)
Winds: from the NNE (20 degrees) at 9 MPH (8 knots; 4.1 m/s)
Visibility: 6 or more miles (10+ km)
Ceiling: 4300 feet AGL
Clouds: few clouds at 3000 feet AGL
broken clouds at 4300 feet AGL
Weather: no significant weather observed at this time

METAR text: UKLI 241630Z 01005MPS 9999 FEW030CB BKN043 25/18 Q1022 R28/090070 NOSIG
Conditions at: UKLI (IVANO-FRANKIVSK , UA) observed 1630 UTC 24 June 2019
Temperature: 25.0°C (77°F)
Dewpoint: 18.0°C (64°F) [RH = 65%]
Pressure (altimeter): 30.18 inches Hg (1022.0 mb)
Winds: from the N (10 degrees) at 12 MPH (10 knots; 5.1 m/s)
Visibility: 6 or more miles (10+ km)
Ceiling: 4300 feet AGL
Clouds: few clouds at 3000 feet AGL
broken clouds at 4300 feet AGL
Weather: no significant weather observed at this time

METAR text: UKLI 241600Z 02005MPS 350V050 9999 FEW030CB BKN043 25/19 Q1022 R28/090070 NOSIG
Conditions at: UKLI (IVANO-FRANKIVSK , UA) observed 1600 UTC 24 June 2019
Temperature: 25.0°C (77°F)
Dewpoint: 19.0°C (66°F) [RH = 69%]
Pressure (altimeter): 30.18 inches Hg (1022.0 mb)
Winds: from the NNE (20 degrees) at 12 MPH (10 knots; 5.1 m/s)
Visibility: 6 or more miles (10+ km)
Ceiling: 4300 feet AGL
Clouds: few clouds at 3000 feet AGL
broken clouds at 4300 feet AGL
Weather: no significant weather observed at this time

METAR text: UKLI 241530Z 01004MPS 9999 FEW030CB BKN043 25/19 Q1022 R28/090070 NOSIG
Conditions at: UKLI (IVANO-FRANKIVSK , UA) observed 1530 UTC 24 June 2019
Temperature: 25.0°C (77°F)
Dewpoint: 19.0°C (66°F) [RH = 69%]
Pressure (altimeter): 30.18 inches Hg (1022.0 mb)
Winds: from the N (10 degrees) at 9 MPH (8 knots; 4.1 m/s)
Visibility: 6 or more miles (10+ km)
Ceiling: 4300 feet AGL
Clouds: few clouds at 3000 feet AGL
broken clouds at 4300 feet AGL
Weather: no significant weather observed at this time

METAR text: UKLI 241500Z 01004MPS 9999 FEW030CB BKN043 26/19 Q1022 R28/090070 NOSIG
Conditions at: UKLI (IVANO-FRANKIVSK , UA) observed 1500 UTC 24 June 2019
Temperature: 26.0°C (79°F)
Dewpoint: 19.0°C (66°F) [RH = 65%]
Pressure (altimeter): 30.18 inches Hg (1022.0 mb)
Winds: from the N (10 degrees) at 9 MPH (8 knots; 4.1 m/s)
Visibility: 6 or more miles (10+ km)
Ceiling: 4300 feet AGL
Clouds: few clouds at 3000 feet AGL
broken clouds at 4300 feet AGL
Weather: no significant weather observed at this time

METAR text: UKLI 241430Z 34003MPS 300V010 9999 SCT033 BKN100 26/20 Q1022 R28/090070 NOSIG
Conditions at: UKLI (IVANO-FRANKIVSK , UA) observed 1430 UTC 24 June 2019
Temperature: 26.0°C (79°F)
Dewpoint: 20.0°C (68°F) [RH = 70%]
Pressure (altimeter): 30.18 inches Hg (1022.0 mb)
Winds: from the NNW (340 degrees) at 7 MPH (6 knots; 3.1 m/s)
Visibility: 6 or more miles (10+ km)
Ceiling: 10000 feet AGL
Clouds: scattered clouds at 3300 feet AGL
broken clouds at 10000 feet AGL
Weather: no significant weather observed at this time

METAR text: UKLI 241400Z 02003MPS 340V060 9999 FEW026CB BKN040 25/19 Q1022 R28/090070 NOSIG
Conditions at: UKLI (IVANO-FRANKIVSK , UA) observed 1400 UTC 24 June 2019
Temperature: 25.0°C (77°F)
Dewpoint: 19.0°C (66°F) [RH = 69%]
Pressure (altimeter): 30.18 inches Hg (1022.0 mb)
Winds: from the NNE (20 degrees) at 7 MPH (6 knots; 3.1 m/s)
Visibility: 6 or more miles (10+ km)
Ceiling: 4000 feet AGL
Clouds: few clouds at 2600 feet AGL
broken clouds at 4000 feet AGL
Weather: no significant weather observed at this time

METAR text: UKLI 241330Z 34002MPS 9999 -SHRA SCT024CB BKN033 25/19 Q1022 R28/090070 NOSIG
Conditions at: UKLI (IVANO-FRANKIVSK , UA) observed 1330 UTC 24 June 2019
Temperature: 25.0°C (77°F)
Dewpoint: 19.0°C (66°F) [RH = 69%]
Pressure (altimeter): 30.18 inches Hg (1022.0 mb)
Winds: from the NNW (340 degrees) at 5 MPH (4 knots; 2.1 m/s)
Visibility: 6 or more miles (10+ km)
Ceiling: 3300 feet AGL
Clouds: scattered clouds at 2400 feet AGL
broken clouds at 3300 feet AGL
Weather: -SHRA  (light rain showers)

METAR text: UKLI 241300Z 33003MPS 270V360 9999 SCT024CB BKN033 25/20 Q1022 R28/090070 NOSIG
Conditions at: UKLI (IVANO-FRANKIVSK , UA) observed 1300 UTC 24 June 2019
Temperature: 25.0°C (77°F)
Dewpoint: 20.0°C (68°F) [RH = 74%]
Pressure (altimeter): 30.18 inches Hg (1022.0 mb)
Winds: from the NNW (330 degrees) at 7 MPH (6 knots; 3.1 m/s)
Visibility: 6 or more miles (10+ km)
Ceiling: 3300 feet AGL
Clouds: scattered clouds at 2400 feet AGL
broken clouds at 3300 feet AGL
Weather: no significant weather observed at this time

METAR text: UKLI 241230Z 33002MPS 9999 SCT020CB BKN033 25/19 Q1022 R28/090070 NOSIG
Conditions at: UKLI (IVANO-FRANKIVSK , UA) observed 1230 UTC 24 June 2019
Temperature: 25.0°C (77°F)
Dewpoint: 19.0°C (66°F) [RH = 69%]
Pressure (altimeter): 30.18 inches Hg (1022.0 mb)
Winds: from the NNW (330 degrees) at 5 MPH (4 knots; 2.1 m/s)
Visibility: 6 or more miles (10+ km)
Ceiling: 3300 feet AGL
Clouds: scattered clouds at 2000 feet AGL
broken clouds at 3300 feet AGL
Weather: no significant weather observed at this time

METAR text: UKLI 241200Z 02003MPS 320V060 9999 SCT020CB BKN033 25/20 Q1022 R28/090070 NOSIG
Conditions at: UKLI (IVANO-FRANKIVSK , UA) observed 1200 UTC 24 June 2019
Temperature: 25.0°C (77°F)
Dewpoint: 20.0°C (68°F) [RH = 74%]
Pressure (altimeter): 30.18 inches Hg (1022.0 mb)
Winds: from the NNE (20 degrees) at 7 MPH (6 knots; 3.1 m/s)
Visibility: 6 or more miles (10+ km)
Ceiling: 3300 feet AGL
Clouds: scattered clouds at 2000 feet AGL
broken clouds at 3300 feet AGL
Weather: no significant weather observed at this time

METAR text: UKLI 241130Z 33003MPS 300V010 9999 FEW020CB BKN033 24/19 Q1022 R28/190068 NOSIG
Conditions at: UKLI (IVANO-FRANKIVSK , UA) observed 1130 UTC 24 June 2019
Temperature: 24.0°C (75°F)
Dewpoint: 19.0°C (66°F) [RH = 74%]
Pressure (altimeter): 30.18 inches Hg (1022.0 mb)
Winds: from the NNW (330 degrees) at 7 MPH (6 knots; 3.1 m/s)
Visibility: 6 or more miles (10+ km)
Ceiling: 3300 feet AGL
Clouds: few clouds at 2000 feet AGL
broken clouds at 3300 feet AGL
Weather: no significant weather observed at this time

METAR text: UKLI 241100Z 33003MPS 9999 SCT017CB BKN030 23/19 Q1022 R28/190068 NOSIG
Conditions at: UKLI (IVANO-FRANKIVSK , UA) observed 1100 UTC 24 June 2019
Temperature: 23.0°C (73°F)
Dewpoint: 19.0°C (66°F) [RH = 78%]
Pressure (altimeter): 30.18 inches Hg (1022.0 mb)
Winds: from the NNW (330 degrees) at 7 MPH (6 knots; 3.1 m/s)
Visibility: 6 or more miles (10+ km)
Ceiling: 3000 feet AGL
Clouds: scattered clouds at 1700 feet AGL
broken clouds at 3000 feet AGL
Weather: no significant weather observed at this time

METAR text: UKLI 241030Z 03004MPS 340V070 9999 SCT016CB BKN030 23/18 Q1022 R28/190068 NOSIG
Conditions at: UKLI (IVANO-FRANKIVSK , UA) observed 1030 UTC 24 June 2019
Temperature: 23.0°C (73°F)
Dewpoint: 18.0°C (64°F) [RH = 73%]
Pressure (altimeter): 30.18 inches Hg (1022.0 mb)
Winds: from the NNE (30 degrees) at 9 MPH (8 knots; 4.1 m/s)
Visibility: 6 or more miles (10+ km)
Ceiling: 3000 feet AGL
Clouds: scattered clouds at 1600 feet AGL
broken clouds at 3000 feet AGL
Weather: no significant weather observed at this time

METAR text: UKLI 241000Z 02003MPS 9999 SCT016CB BKN030 23/19 Q1022 R28/190068 NOSIG
Conditions at: UKLI (IVANO-FRANKIVSK , UA) observed 1000 UTC 24 June 2019
Temperature: 23.0°C (73°F)
Dewpoint: 19.0°C (66°F) [RH = 78%]
Pressure (altimeter): 30.18 inches Hg (1022.0 mb)
Winds: from the NNE (20 degrees) at 7 MPH (6 knots; 3.1 m/s)
Visibility: 6 or more miles (10+ km)
Ceiling: 3000 feet AGL
Clouds: scattered clouds at 1600 feet AGL
broken clouds at 3000 feet AGL
Weather: no significant weather observed at this time

METAR text: UKLI 240930Z 04004MPS 010V080 9999 SCT016CB BKN030 24/19 Q1022 R28/190068 NOSIG
Conditions at: UKLI (IVANO-FRANKIVSK , UA) observed 0930 UTC 24 June 2019
Temperature: 24.0°C (75°F)
Dewpoint: 19.0°C (66°F) [RH = 74%]
Pressure (altimeter): 30.18 inches Hg (1022.0 mb)
Winds: from the NE (40 degrees) at 9 MPH (8 knots; 4.1 m/s)
Visibility: 6 or more miles (10+ km)
Ceiling: 3000 feet AGL
Clouds: scattered clouds at 1600 feet AGL
broken clouds at 3000 feet AGL
Weather: no significant weather observed at this time

METAR text: UKLI 240900Z 04003MPS 010V080 9999 -SHRA BKN015CB BKN023 22/19 Q1022 R28/190068 NOSIG
Conditions at: UKLI (IVANO-FRANKIVSK , UA) observed 0900 UTC 24 June 2019
Temperature: 22.0°C (72°F)
Dewpoint: 19.0°C (66°F) [RH = 83%]
Pressure (altimeter): 30.18 inches Hg (1022.0 mb)
Winds: from the NE (40 degrees) at 7 MPH (6 knots; 3.1 m/s)
Visibility: 6 or more miles (10+ km)
Ceiling: 1500 feet AGL
Clouds: broken clouds at 1500 feet AGL
broken clouds at 2300 feet AGL
Weather: -SHRA  (light rain showers)

METAR text: UKLI 240848Z 02003MPS 9999 -SHRA BKN015CB BKN023 22/19 Q1022 R28/190068 NOSIG
Conditions at: UKLI (IVANO-FRANKIVSK , UA) observed 0848 UTC 24 June 2019
Temperature: 22.0°C (72°F)
Dewpoint: 19.0°C (66°F) [RH = 83%]
Pressure (altimeter): 30.18 inches Hg (1022.0 mb)
Winds: from the NNE (20 degrees) at 7 MPH (6 knots; 3.1 m/s)
Visibility: 6 or more miles (10+ km)
Ceiling: 1500 feet AGL
Clouds: broken clouds at 1500 feet AGL
broken clouds at 2300 feet AGL
Weather: -SHRA  (light rain showers)

METAR text: UKLI 240830Z 35002MPS 320V020 9999 FEW014CB BKN023 22/19 Q1022 R28/190068 NOSIG
Conditions at: UKLI (IVANO-FRANKIVSK , UA) observed 0830 UTC 24 June 2019
Temperature: 22.0°C (72°F)
Dewpoint: 19.0°C (66°F) [RH = 83%]
Pressure (altimeter): 30.18 inches Hg (1022.0 mb)
Winds: from the N (350 degrees) at 5 MPH (4 knots; 2.1 m/s)
Visibility: 6 or more miles (10+ km)
Ceiling: 2300 feet AGL
Clouds: few clouds at 1400 feet AGL
broken clouds at 2300 feet AGL
Weather: no significant weather observed at this time

METAR text: UKLI 240800Z 31001MPS 9999 FEW014CB BKN023 23/20 Q1021 R28/190068 NOSIG
Conditions at: UKLI (IVANO-FRANKIVSK , UA) observed 0800 UTC 24 June 2019
Temperature: 23.0°C (73°F)
Dewpoint: 20.0°C (68°F) [RH = 83%]
Pressure (altimeter): 30.15 inches Hg (1021.0 mb)
Winds: from the NW (310 degrees) at 2 MPH (2 knots; 1.0 m/s)
Visibility: 6 or more miles (10+ km)
Ceiling: 2300 feet AGL
Clouds: few clouds at 1400 feet AGL
broken clouds at 2300 feet AGL
Weather: no significant weather observed at this time

METAR text: UKLI 240730Z 00000MPS 9999 FEW013CB BKN023 21/20 Q1021 R28/190068 NOSIG
Conditions at: UKLI (IVANO-FRANKIVSK , UA) observed 0730 UTC 24 June 2019
Temperature: 21.0°C (70°F)
Dewpoint: 20.0°C (68°F) [RH = 94%]
Pressure (altimeter): 30.15 inches Hg (1021.0 mb)
Winds: calm
Visibility: 6 or more miles (10+ km)
Ceiling: 2300 feet AGL
Clouds: few clouds at 1300 feet AGL
broken clouds at 2300 feet AGL
Weather: no significant weather observed at this time

METAR text: UKLI 240700Z VRB01MPS 9999 OVC009 21/20 Q1021 R10/290565 NOSIG
Conditions at: UKLI (IVANO-FRANKIVSK , UA) observed 0700 UTC 24 June 2019
Temperature: 21.0°C (70°F)
Dewpoint: 20.0°C (68°F) [RH = 94%]
Pressure (altimeter): 30.15 inches Hg (1021.0 mb)
Winds: variable direction winds at 2 MPH (2 knots; 1.0 m/s)
Visibility: 6 or more miles (10+ km)
Ceiling: 900 feet AGL
Clouds: overcast cloud deck at 900 feet AGL
Weather: no significant weather observed at this time

METAR text: UKLI 240630Z 29001MPS 9999 OVC008 20/20 Q1021 R10/290565 NOSIG
Conditions at: UKLI (IVANO-FRANKIVSK , UA) observed 0630 UTC 24 June 2019
Temperature: 20.0°C (68°F)
Dewpoint: 20.0°C (68°F) [RH = 100%]
Pressure (altimeter): 30.15 inches Hg (1021.0 mb)
Winds: from the WNW (290 degrees) at 2 MPH (2 knots; 1.0 m/s)
Visibility: 6 or more miles (10+ km)
Ceiling: 800 feet AGL
Clouds: overcast cloud deck at 800 feet AGL
Weather: no significant weather observed at this time

METAR text: UKLI 240600Z 26002MPS 9999 OVC009 19/19 Q1021 R10/290565 NOSIG
Conditions at: UKLI (IVANO-FRANKIVSK , UA) observed 0600 UTC 24 June 2019
Temperature: 19.0°C (66°F)
Dewpoint: 19.0°C (66°F) [RH = 100%]
Pressure (altimeter): 30.15 inches Hg (1021.0 mb)
Winds: from the W (260 degrees) at 5 MPH (4 knots; 2.1 m/s)
Visibility: 6 or more miles (10+ km)
Ceiling: 900 feet AGL
Clouds: overcast cloud deck at 900 feet AGL
Weather: no significant weather observed at this time

METAR text: UKLI 240554Z 26002MPS 220V280 9999 BKN009 19/18 Q1021 R10/290565 NOSIG
Conditions at: UKLI (IVANO-FRANKIVSK , UA) observed 0554 UTC 24 June 2019
Temperature: 19.0°C (66°F)
Dewpoint: 18.0°C (64°F) [RH = 94%]
Pressure (altimeter): 30.15 inches Hg (1021.0 mb)
Winds: from the W (260 degrees) at 5 MPH (4 knots; 2.1 m/s)
Visibility: 6 or more miles (10+ km)
Ceiling: 900 feet AGL
Clouds: broken clouds at 900 feet AGL
Weather: no significant weather observed at this time

METAR text: UKLI 240530Z 27002MPS 9999 BKN013 19/18 Q1021 R10/290565 NOSIG
Conditions at: UKLI (IVANO-FRANKIVSK , UA) observed 0530 UTC 24 June 2019
Temperature: 19.0°C (66°F)
Dewpoint: 18.0°C (64°F) [RH = 94%]
Pressure (altimeter): 30.15 inches Hg (1021.0 mb)
Winds: from the W (270 degrees) at 5 MPH (4 knots; 2.1 m/s)
Visibility: 6 or more miles (10+ km)
Ceiling: 1300 feet AGL
Clouds: broken clouds at 1300 feet AGL
Weather: no significant weather observed at this time

METAR text: UKLI 240526Z 27002MPS 9999 BKN013 19/18 Q1021 R10/290565 NOSIG
Conditions at: UKLI (IVANO-FRANKIVSK , UA) observed 0526 UTC 24 June 2019
Temperature: 19.0°C (66°F)
Dewpoint: 18.0°C (64°F) [RH = 94%]
Pressure (altimeter): 30.15 inches Hg (1021.0 mb)
Winds: from the W (270 degrees) at 5 MPH (4 knots; 2.1 m/s)
Visibility: 6 or more miles (10+ km)
Ceiling: 1300 feet AGL
Clouds: broken clouds at 1300 feet AGL
Weather: no significant weather observed at this time

METAR text: UKLI 240500Z 26001MPS 9999 SCT015CB BKN026 19/18 Q1020 R10/290565 NOSIG
Conditions at: UKLI (IVANO-FRANKIVSK , UA) observed 0500 UTC 24 June 2019
Temperature: 19.0°C (66°F)
Dewpoint: 18.0°C (64°F) [RH = 94%]
Pressure (altimeter): 30.12 inches Hg (1020.0 mb)
Winds: from the W (260 degrees) at 2 MPH (2 knots; 1.0 m/s)
Visibility: 6 or more miles (10+ km)
Ceiling: 2600 feet AGL
Clouds: scattered clouds at 1500 feet AGL
broken clouds at 2600 feet AGL
Weather: no significant weather observed at this time

METAR text: UKLI 240430Z VRB01MPS 9999 SCT019CB BKN026 19/18 Q1020 R10/290565 NOSIG
Conditions at: UKLI (IVANO-FRANKIVSK , UA) observed 0430 UTC 24 June 2019
Temperature: 19.0°C (66°F)
Dewpoint: 18.0°C (64°F) [RH = 94%]
Pressure (altimeter): 30.12 inches Hg (1020.0 mb)
Winds: variable direction winds at 2 MPH (2 knots; 1.0 m/s)
Visibility: 6 or more miles (10+ km)
Ceiling: 2600 feet AGL
Clouds: scattered clouds at 1900 feet AGL
broken clouds at 2600 feet AGL
Weather: no significant weather observed at this time

METAR text: UKLI 240400Z 00000MPS 9999 SCT020CB BKN033 18/18 Q1020 R10/290565 NOSIG
Conditions at: UKLI (IVANO-FRANKIVSK , UA) observed 0400 UTC 24 June 2019
Temperature: 18.0°C (64°F)
Dewpoint: 18.0°C (64°F) [RH = 100%]
Pressure (altimeter): 30.12 inches Hg (1020.0 mb)
Winds: calm
Visibility: 6 or more miles (10+ km)
Ceiling: 3300 feet AGL
Clouds: scattered clouds at 2000 feet AGL
broken clouds at 3300 feet AGL
Weather: no significant weather observed at this time

METAR text: UKLI 240330Z 01002MPS 9999 SCT021CB BKN033 18/18 Q1019 R28/290565 NOSIG
Conditions at: UKLI (IVANO-FRANKIVSK , UA) observed 0330 UTC 24 June 2019
Temperature: 18.0°C (64°F)
Dewpoint: 18.0°C (64°F) [RH = 100%]
Pressure (altimeter): 30.09 inches Hg (1019.0 mb)
Winds: from the N (10 degrees) at 5 MPH (4 knots; 2.1 m/s)
Visibility: 6 or more miles (10+ km)
Ceiling: 3300 feet AGL
Clouds: scattered clouds at 2100 feet AGL
broken clouds at 3300 feet AGL
Weather: no significant weather observed at this time

METAR text: UKLI 240300Z 32003MPS 9999 -SHRA SCT020CB BKN033 17/17 Q1019 R28/290565 NOSIG
Conditions at: UKLI (IVANO-FRANKIVSK , UA) observed 0300 UTC 24 June 2019
Temperature: 17.0°C (63°F)
Dewpoint: 17.0°C (63°F) [RH = 100%]
Pressure (altimeter): 30.09 inches Hg (1019.0 mb)
Winds: from the NW (320 degrees) at 7 MPH (6 knots; 3.1 m/s)
Visibility: 6 or more miles (10+ km)
Ceiling: 3300 feet AGL
Clouds: scattered clouds at 2000 feet AGL
broken clouds at 3300 feet AGL
Weather: -SHRA  (light rain showers)

METAR text: UKLI 240230Z 31003MPS 270V340 6000 -SHRA BKN018CB BKN030 17/17 Q1019 R28/290565 NOSIG
Conditions at: UKLI (IVANO-FRANKIVSK , UA) observed 0230 UTC 24 June 2019
Temperature: 17.0°C (63°F)
Dewpoint: 17.0°C (63°F) [RH = 100%]
Pressure (altimeter): 30.09 inches Hg (1019.0 mb)
Winds: from the NW (310 degrees) at 7 MPH (6 knots; 3.1 m/s)
Visibility: 4 miles ( 6 km)
Ceiling: 1800 feet AGL
Clouds: broken clouds at 1800 feet AGL
broken clouds at 3000 feet AGL
Weather: -SHRA  (light rain showers)

METAR text: UKLI 240221Z 34002MPS 3700 -SHRA BKN018CB BKN030 17/17 Q1019 R28/290565 NOSIG
Conditions at: UKLI (IVANO-FRANKIVSK , UA) observed 0221 UTC 24 June 2019
Temperature: 17.0°C (63°F)
Dewpoint: 17.0°C (63°F) [RH = 100%]
Pressure (altimeter): 30.09 inches Hg (1019.0 mb)
Winds: from the NNW (340 degrees) at 5 MPH (4 knots; 2.1 m/s)
Visibility: 2.30 miles (3.70 km)
Ceiling: 1800 feet AGL
Clouds: broken clouds at 1800 feet AGL
broken clouds at 3000 feet AGL
Weather: -SHRA  (light rain showers)

METAR text: UKLI 240209Z 35003MPS 2500 -SHRA BKN018CB BKN030 17/17 Q1020 R28/290565 NOSIG
Conditions at: UKLI (IVANO-FRANKIVSK , UA) observed 0209 UTC 24 June 2019
Temperature: 17.0°C (63°F)
Dewpoint: 17.0°C (63°F) [RH = 100%]
Pressure (altimeter): 30.12 inches Hg (1020.0 mb)
Winds: from the N (350 degrees) at 7 MPH (6 knots; 3.1 m/s)
Visibility: 1.55 miles (2.49 km)
Ceiling: 1800 feet AGL
Clouds: broken clouds at 1800 feet AGL
broken clouds at 3000 feet AGL
Weather: -SHRA  (light rain showers)

METAR text: UKLI 240206Z 36003MPS 4400 -SHRA BKN018CB BKN030 17/17 Q1020 R28/290565 NOSIG
Conditions at: UKLI (IVANO-FRANKIVSK , UA) observed 0206 UTC 24 June 2019
Temperature: 17.0°C (63°F)
Dewpoint: 17.0°C (63°F) [RH = 100%]
Pressure (altimeter): 30.12 inches Hg (1020.0 mb)
Winds: from the N (360 degrees) at 7 MPH (6 knots; 3.1 m/s)
Visibility: 2.73 miles (4.39 km)
Ceiling: 1800 feet AGL
Clouds: broken clouds at 1800 feet AGL
broken clouds at 3000 feet AGL
Weather: -SHRA  (light rain showers)

METAR text: UKLI 240200Z 04002MPS 010V170 6000 -SHRA BKN018CB BKN030 17/17 Q1020 R28/290565 NOSIG
Conditions at: UKLI (IVANO-FRANKIVSK , UA) observed 0200 UTC 24 June 2019
Temperature: 17.0°C (63°F)
Dewpoint: 17.0°C (63°F) [RH = 100%]
Pressure (altimeter): 30.12 inches Hg (1020.0 mb)
Winds: from the NE (40 degrees) at 5 MPH (4 knots; 2.1 m/s)
Visibility: 4 miles ( 6 km)
Ceiling: 1800 feet AGL
Clouds: broken clouds at 1800 feet AGL
broken clouds at 3000 feet AGL
Weather: -SHRA  (light rain showers)

METAR text: UKLI 240149Z 18003MPS 4000 -SHRA BKN018CB BKN030 17/17 Q1020 R28/290565 NOSIG
Conditions at: UKLI (IVANO-FRANKIVSK , UA) observed 0149 UTC 24 June 2019
Temperature: 17.0°C (63°F)
Dewpoint: 17.0°C (63°F) [RH = 100%]
Pressure (altimeter): 30.12 inches Hg (1020.0 mb)
Winds: from the S (180 degrees) at 7 MPH (6 knots; 3.1 m/s)
Visibility: 2.49 miles (4.01 km)
Ceiling: 1800 feet AGL
Clouds: broken clouds at 1800 feet AGL
broken clouds at 3000 feet AGL
Weather: -SHRA  (light rain showers)

METAR text: UKLI 240130Z 21001MPS 9999 -SHRA BKN018CB BKN030 17/17 Q1020 R28/090070 NOSIG
Conditions at: UKLI (IVANO-FRANKIVSK , UA) observed 0130 UTC 24 June 2019
Temperature: 17.0°C (63°F)
Dewpoint: 17.0°C (63°F) [RH = 100%]
Pressure (altimeter): 30.12 inches Hg (1020.0 mb)
Winds: from the SSW (210 degrees) at 2 MPH (2 knots; 1.0 m/s)
Visibility: 6 or more miles (10+ km)
Ceiling: 1800 feet AGL
Clouds: broken clouds at 1800 feet AGL
broken clouds at 3000 feet AGL
Weather: -SHRA  (light rain showers)

METAR text: UKLI 240116Z 24001MPS 9999 -SHRA BKN019CB BKN033 17/17 Q1020 R28/090070 NOSIG
Conditions at: UKLI (IVANO-FRANKIVSK , UA) observed 0116 UTC 24 June 2019
Temperature: 17.0°C (63°F)
Dewpoint: 17.0°C (63°F) [RH = 100%]
Pressure (altimeter): 30.12 inches Hg (1020.0 mb)
Winds: from the WSW (240 degrees) at 2 MPH (2 knots; 1.0 m/s)
Visibility: 6 or more miles (10+ km)
Ceiling: 1900 feet AGL
Clouds: broken clouds at 1900 feet AGL
broken clouds at 3300 feet AGL
Weather: -SHRA  (light rain showers)

METAR text: UKLI 240107Z 26002MPS 2500 1300W SHRA BKN019CB BKN033 17/17 Q1019 R28/090070 NOSIG
Conditions at: UKLI (IVANO-FRANKIVSK , UA) observed 0107 UTC 24 June 2019
Temperature: 17.0°C (63°F)
Dewpoint: 17.0°C (63°F) [RH = 100%]
Pressure (altimeter): 30.09 inches Hg (1019.0 mb)
Winds: from the W (260 degrees) at 5 MPH (4 knots; 2.1 m/s)
Visibility: 1.55 miles (2.49 km)
Ceiling: 1900 feet AGL
Clouds: broken clouds at 1900 feet AGL
broken clouds at 3300 feet AGL
Weather: SHRA  (rain showers)

METAR text: UKLI 240104Z 26002MPS 4200 1600N SHRA SCT020CB BKN033 17/17 Q1019 R28/090070 NOSIG
Conditions at: UKLI (IVANO-FRANKIVSK , UA) observed 0104 UTC 24 June 2019
Temperature: 17.0°C (63°F)
Dewpoint: 17.0°C (63°F) [RH = 100%]
Pressure (altimeter): 30.09 inches Hg (1019.0 mb)
Winds: from the W (260 degrees) at 5 MPH (4 knots; 2.1 m/s)
Visibility: 2.61 miles (4.20 km)
Ceiling: 3300 feet AGL
Clouds: scattered clouds at 2000 feet AGL
broken clouds at 3300 feet AGL
Weather: SHRA  (rain showers)

METAR text: UKLI 240100Z 24002MPS 9999 -SHRA SCT020CB BKN033 17/17 Q1020 R28/090070 NOSIG
Conditions at: UKLI (IVANO-FRANKIVSK , UA) observed 0100 UTC 24 June 2019
Temperature: 17.0°C (63°F)
Dewpoint: 17.0°C (63°F) [RH = 100%]
Pressure (altimeter): 30.12 inches Hg (1020.0 mb)
Winds: from the WSW (240 degrees) at 5 MPH (4 knots; 2.1 m/s)
Visibility: 6 or more miles (10+ km)
Ceiling: 3300 feet AGL
Clouds: scattered clouds at 2000 feet AGL
broken clouds at 3300 feet AGL
Weather: -SHRA  (light rain showers)

METAR text: UKLI 240043Z VRB01MPS 6000 2000N -SHRA SCT020CB BKN033 17/17 Q1019 R28/090070 NOSIG
Conditions at: UKLI (IVANO-FRANKIVSK , UA) observed 0043 UTC 24 June 2019
Temperature: 17.0°C (63°F)
Dewpoint: 17.0°C (63°F) [RH = 100%]
Pressure (altimeter): 30.09 inches Hg (1019.0 mb)
Winds: variable direction winds at 2 MPH (2 knots; 1.0 m/s)
Visibility: 4 miles ( 6 km)
Ceiling: 3300 feet AGL
Clouds: scattered clouds at 2000 feet AGL
broken clouds at 3300 feet AGL
Weather: -SHRA  (light rain showers)

Forecast for: UKLI (IVANO-FRANKIVSK , UA)
Text: TAF UKLI 251102Z 2512/2521 07004MPS 9999 BKN030 TX29/2513Z TN20/2521Z
Forecast period: 1200 to 2100 UTC 25 June 2019
Forecast type: FROM: standard forecast or significant change
Winds: from the ENE (70 degrees) at 9 MPH (8 knots; 4.1 m/s)
Visibility: 6 or more miles 10+ km)
Ceiling: 3000 feet AGL
Clouds: broken clouds at 3000 feet AGL
Weather: no significant weather forecast for this period
Text: TEMPO 2518/2521 VRB01MPS 2100 BR BKN012
Forecast period: 1800 to 2100 UTC 25 June 2019
Forecast type: TEMPORARY: The following changes expected for less than half the time period
Winds: variable direction winds at 2 MPH (2 knots; 1.0 m/s)
Visibility: 1.30 miles (2.09 km)
Ceiling: 1200 feet AGL
Clouds: broken clouds at 1200 feet AGL
Weather: BR  (mist)